sensor_id;sensor_type;location;lat;lon;timestamp;P1;P2;P0
74426;PMS7003;62859;53.906;27.430;2023-06-14T00:02:24;0.8;0.3;0
74426;PMS7003;62859;53.906;27.430;2023-06-14T00:06:50;2.7;2.3;1.7
74426;PMS7003;62859;53.906;27.430;2023-06-14T00:12:02;2.3;1.7;1
74426;PMS7003;62859;53.906;27.430;2023-06-14T00:17:26;0.3;0.3;0
74426;PMS7003;62859;53.906;27.430;2023-06-14T00:21:56;2.3;1.5;1
74426;PMS7003;62859;53.906;27.430;2023-06-14T00:26:58;1.7;1.3;1.3
74426;PMS7003;62859;53.906;27.430;2023-06-14T00:32:00;1.7;1;1
74426;PMS7003;62859;53.906;27.430;2023-06-14T00:37:18;1.5;1.3;1
74426;PMS7003;62859;53.906;27.430;2023-06-14T00:42:24;1.7;1.7;0.7
74426;PMS7003;62859;53.906;27.430;2023-06-14T00:46:42;2;2;1.7
74426;PMS7003;62859;53.906;27.430;2023-06-14T00:51:58;1;1;0.7
74426;PMS7003;62859;53.906;27.430;2023-06-14T00:57:18;2;1.8;1.3
74426;PMS7003;62859;53.906;27.430;2023-06-14T01:02:22;1.3;1.3;1
74426;PMS7003;62859;53.906;27.430;2023-06-14T01:07:02;4.3;3.3;2
74426;PMS7003;62859;53.906;27.430;2023-06-14T01:11:54;3.7;2.7;1.3
74426;PMS7003;62859;53.906;27.430;2023-06-14T01:17:22;2.3;2;1.3
74426;PMS7003;62859;53.906;27.430;2023-06-14T01:22:25;3.3;2.3;1.3
74426;PMS7003;62859;53.906;27.430;2023-06-14T01:27:00;2.3;2.3;1.3
74426;PMS7003;62859;53.906;27.430;2023-06-14T01:31:50;3;2.3;2
74426;PMS7003;62859;53.906;27.430;2023-06-14T01:36:44;2.8;2.5;1.3
74426;PMS7003;62859;53.906;27.430;2023-06-14T01:42:22;2.7;2.3;1.7
74426;PMS7003;62859;53.906;27.430;2023-06-14T01:46:42;2.3;2.3;2
74426;PMS7003;62859;53.906;27.430;2023-06-14T01:51:58;3;2.7;1.7
74426;PMS7003;62859;53.906;27.430;2023-06-14T01:56:44;2;2;1.8
74426;PMS7003;62859;53.906;27.430;2023-06-14T02:01:58;3;3;2.3
74426;PMS7003;62859;53.906;27.430;2023-06-14T02:06:42;1.7;1.7;1.7
74426;PMS7003;62859;53.906;27.430;2023-06-14T02:11:42;2.7;2.7;2.3
74426;PMS7003;62859;53.906;27.430;2023-06-14T02:17:18;3.8;2.5;2
74426;PMS7003;62859;53.906;27.430;2023-06-14T02:22:24;4;3;1.7
74426;PMS7003;62859;53.906;27.430;2023-06-14T02:27:02;3.7;2.3;1.3
74426;PMS7003;62859;53.906;27.430;2023-06-14T02:32:00;2.5;2.5;1.5
74426;PMS7003;62859;53.906;27.430;2023-06-14T02:37:18;3.3;2.3;2.3
74426;PMS7003;62859;53.906;27.430;2023-06-14T02:42:24;3.3;3;2
74426;PMS7003;62859;53.906;27.430;2023-06-14T02:46:42;3.3;3;2.7
74426;PMS7003;62859;53.906;27.430;2023-06-14T02:51:50;3.5;3.3;2.3
74426;PMS7003;62859;53.906;27.430;2023-06-14T02:56:52;5;3.7;2.3
74426;PMS7003;62859;53.906;27.430;2023-06-14T03:02:26;3.7;3.3;2.7
74426;PMS7003;62859;53.906;27.430;2023-06-14T03:07:18;2.7;2.3;1.7
74426;PMS7003;62859;53.906;27.430;2023-06-14T03:12:00;4.3;3.3;2.5
74426;PMS7003;62859;53.906;27.430;2023-06-14T03:17:16;3;2.7;2
74426;PMS7003;62859;53.906;27.430;2023-06-14T03:22:26;3.7;3;2.3
74426;PMS7003;62859;53.906;27.430;2023-06-14T03:27:00;2.7;2.3;1
74426;PMS7003;62859;53.906;27.430;2023-06-14T03:31:56;3.5;3.5;2.5
74426;PMS7003;62859;53.906;27.430;2023-06-14T03:37:06;1.7;1.7;1
74426;PMS7003;62859;53.906;27.430;2023-06-14T03:42:24;3;2.7;2.7
74426;PMS7003;62859;53.906;27.430;2023-06-14T03:47:02;4;3;2.7
74426;PMS7003;62859;53.906;27.430;2023-06-14T03:52:00;3.5;2.8;1.8
74426;PMS7003;62859;53.906;27.430;2023-06-14T03:57:18;4.7;4.3;2.7
74426;PMS7003;62859;53.906;27.430;2023-06-14T04:02:24;3.7;3.3;2
74426;PMS7003;62859;53.906;27.430;2023-06-14T04:06:42;3.7;3.7;2.7
74426;PMS7003;62859;53.906;27.430;2023-06-14T04:11:42;4.3;3;2.3
74426;PMS7003;62859;53.906;27.430;2023-06-14T04:17:18;4.7;3.7;3
74426;PMS7003;62859;53.906;27.430;2023-06-14T04:22:26;5;4.3;3.7
74426;PMS7003;62859;53.906;27.430;2023-06-14T04:27:00;5;4.3;2.5
74426;PMS7003;62859;53.906;27.430;2023-06-14T04:31:53;5;3.7;3
74426;PMS7003;62859;53.906;27.430;2023-06-14T04:37:16;4;3.3;2.3
74426;PMS7003;62859;53.906;27.430;2023-06-14T04:42:24;3.7;3.7;3
74426;PMS7003;62859;53.906;27.430;2023-06-14T04:47:02;4;4;3
74426;PMS7003;62859;53.906;27.430;2023-06-14T04:51:42;3.7;2.7;2.3
74426;PMS7003;62859;53.906;27.430;2023-06-14T04:57:18;4.3;4;3
74426;PMS7003;62859;53.906;27.430;2023-06-14T05:02:24;3;3;2.3
74426;PMS7003;62859;53.906;27.430;2023-06-14T05:06:52;4.3;3.3;2.3
74426;PMS7003;62859;53.906;27.430;2023-06-14T05:11:52;2.3;2.3;1.7
74426;PMS7003;62859;53.906;27.430;2023-06-14T05:17:18;5.7;4.3;3
74426;PMS7003;62859;53.906;27.430;2023-06-14T05:22:26;5.7;5.3;4
74426;PMS7003;62859;53.906;27.430;2023-06-14T05:26:42;4.8;3.5;2.8
74426;PMS7003;62859;53.906;27.430;2023-06-14T05:31:42;5;3.7;2.7
74426;PMS7003;62859;53.906;27.430;2023-06-14T05:37:18;3.3;3;2.7
74426;PMS7003;62859;53.906;27.430;2023-06-14T05:42:24;3.3;3.3;2
74426;PMS7003;62859;53.906;27.430;2023-06-14T05:46:43;3.3;3;2.3
74426;PMS7003;62859;53.906;27.430;2023-06-14T05:51:50;3;2.7;1.3
74426;PMS7003;62859;53.906;27.430;2023-06-14T05:57:20;3.3;3.3;2.3
74426;PMS7003;62859;53.906;27.430;2023-06-14T06:02:26;3;2.7;2
74426;PMS7003;62859;53.906;27.430;2023-06-14T06:06:48;3.8;3.3;2.5
74426;PMS7003;62859;53.906;27.430;2023-06-14T06:11:50;4;3.7;2.3
74426;PMS7003;62859;53.906;27.430;2023-06-14T06:17:18;4.3;3.7;2
74426;PMS7003;62859;53.906;27.430;2023-06-14T06:22:26;4.3;3.8;2.8
74426;PMS7003;62859;53.906;27.430;2023-06-14T06:27:12;3.3;2.3;1.7
74426;PMS7003;62859;53.906;27.430;2023-06-14T06:31:42;3;3;2.3
74426;PMS7003;62859;53.906;27.430;2023-06-14T06:37:20;4.7;4;2.7
74426;PMS7003;62859;53.906;27.430;2023-06-14T06:42:26;2.8;2.5;1.8
74426;PMS7003;62859;53.906;27.430;2023-06-14T06:47:02;4;4;3
74426;PMS7003;62859;53.906;27.430;2023-06-14T06:51:59;4;3;2.3
74426;PMS7003;62859;53.906;27.430;2023-06-14T06:57:20;4;3;1.7
74426;PMS7003;62859;53.906;27.430;2023-06-14T07:02:26;3.5;2.8;2.3
74426;PMS7003;62859;53.906;27.430;2023-06-14T07:07:02;3.7;3.3;2.7
74426;PMS7003;62859;53.906;27.430;2023-06-14T07:11:52;2.7;2.7;1.7
74426;PMS7003;62859;53.906;27.430;2023-06-14T07:17:20;4.3;4;2.3
74426;PMS7003;62859;53.906;27.430;2023-06-14T07:22:26;3.8;3.8;3
74426;PMS7003;62859;53.906;27.430;2023-06-14T07:26:54;4;4;2.7
74426;PMS7003;62859;53.906;27.430;2023-06-14T07:32:08;3.3;2.3;2
74426;PMS7003;62859;53.906;27.430;2023-06-14T07:36:42;4.7;4.3;3
74426;PMS7003;62859;53.906;27.430;2023-06-14T07:42:20;4.3;4;3
74426;PMS7003;62859;53.906;27.430;2023-06-14T07:46:54;4.7;4.7;3
74426;PMS7003;62859;53.906;27.430;2023-06-14T07:51:54;2.7;2.7;2.3
74426;PMS7003;62859;53.906;27.430;2023-06-14T07:56:58;4.3;3.7;2.7
74426;PMS7003;62859;53.906;27.430;2023-06-14T08:02:18;4.3;3.5;2.3
74426;PMS7003;62859;53.906;27.430;2023-06-14T08:06:42;4.7;3.7;2.3
74426;PMS7003;62859;53.906;27.430;2023-06-14T08:11:54;3.3;3.3;2.7
74426;PMS7003;62859;53.906;27.430;2023-06-14T08:16:46;4;3.3;2
74426;PMS7003;62859;53.906;27.430;2023-06-14T08:21:44;2.7;2.7;2
74426;PMS7003;62859;53.906;27.430;2023-06-14T08:26:42;2.3;2.3;1.7
74426;PMS7003;62859;53.906;27.430;2023-06-14T08:31:54;4;4;3
74426;PMS7003;62859;53.906;27.430;2023-06-14T08:37:14;4;3;2
74426;PMS7003;62859;53.906;27.430;2023-06-14T08:42:18;4.3;3.7;2.3
74426;PMS7003;62859;53.906;27.430;2023-06-14T08:46:42;3.7;3.7;2.7
74426;PMS7003;62859;53.906;27.430;2023-06-14T08:51:57;16.3;12.7;8.7
74426;PMS7003;62859;53.906;27.430;2023-06-14T08:56:58;4.8;3.8;2.8
74426;PMS7003;62859;53.906;27.430;2023-06-14T09:02:20;3;3;2.3
74426;PMS7003;62859;53.906;27.430;2023-06-14T09:07:00;3;3;2
74426;PMS7003;62859;53.906;27.430;2023-06-14T09:11:42;3.3;3;2.3
74426;PMS7003;62859;53.906;27.430;2023-06-14T09:16:58;5.8;5;4
74426;PMS7003;62859;53.906;27.430;2023-06-14T09:22:08;5.7;4.3;3
74426;PMS7003;62859;53.906;27.430;2023-06-14T09:26:56;6.3;5.3;4.7
74426;PMS7003;62859;53.906;27.430;2023-06-14T09:32:08;5;4.3;3.7
74426;PMS7003;62859;53.906;27.430;2023-06-14T09:36:58;6.3;5.8;4.3
74426;PMS7003;62859;53.906;27.430;2023-06-14T09:42:22;5.3;3.7;2.7
74426;PMS7003;62859;53.906;27.430;2023-06-14T09:46:55;4.3;4.3;3.7
74426;PMS7003;62859;53.906;27.430;2023-06-14T09:51:54;6.7;3.7;2.7
74426;PMS7003;62859;53.906;27.430;2023-06-14T09:56:44;3.8;3.5;2.8
74426;PMS7003;62859;53.906;27.430;2023-06-14T10:02:22;3.7;3.3;3
74426;PMS7003;62859;53.906;27.430;2023-06-14T10:06:54;8.3;7.3;5.3
74426;PMS7003;62859;53.906;27.430;2023-06-14T10:12:08;7;5.8;4.3
74426;PMS7003;62859;53.906;27.430;2023-06-14T10:17:00;4.3;3.7;3
74426;PMS7003;62859;53.906;27.430;2023-06-14T10:22:21;4.7;4.3;3.3
74426;PMS7003;62859;53.906;27.430;2023-06-14T10:26:50;5.7;5.3;3.3
74426;PMS7003;62859;53.906;27.430;2023-06-14T10:31:43;4.3;3.8;2.8
74426;PMS7003;62859;53.906;27.430;2023-06-14T10:37:00;5;5;4
74426;PMS7003;62859;53.906;27.430;2023-06-14T10:42:20;3.3;3.3;2.3
74426;PMS7003;62859;53.906;27.430;2023-06-14T10:47:10;6.7;5;3.7
74426;PMS7003;62859;53.906;27.430;2023-06-14T10:51:42;4.7;4;3.3
74426;PMS7003;62859;53.906;27.430;2023-06-14T10:56:46;4;3.7;2.3
74426;PMS7003;62859;53.906;27.430;2023-06-14T11:02:27;5;4.3;3
74426;PMS7003;62859;53.906;27.430;2023-06-14T11:06:45;5.3;5.3;3.7
74426;PMS7003;62859;53.906;27.430;2023-06-14T11:12:07;4.5;4.5;3.5
74426;PMS7003;62859;53.906;27.430;2023-06-14T11:17:04;4.5;4;3
74426;PMS7003;62859;53.906;27.430;2023-06-14T11:22:20;4;4;2.3
74426;PMS7003;62859;53.906;27.430;2023-06-14T11:26:42;3.3;3;2.3
74426;PMS7003;62859;53.906;27.430;2023-06-14T11:31:43;4.5;3.5;2.3
74426;PMS7003;62859;53.906;27.430;2023-06-14T11:36:42;5;3.3;2.7
74426;PMS7003;62859;53.906;27.430;2023-06-14T11:42:22;5;4.7;3.3
74426;PMS7003;62859;53.906;27.430;2023-06-14T11:46:42;4;3.7;3
74426;PMS7003;62859;53.906;27.430;2023-06-14T11:51:56;6.3;4.8;3.5
74426;PMS7003;62859;53.906;27.430;2023-06-14T11:57:00;5.7;4.3;3.3
74426;PMS7003;62859;53.906;27.430;2023-06-14T12:01:58;6.3;5.7;4.3
74426;PMS7003;62859;53.906;27.430;2023-06-14T12:06:54;6.7;5.3;3.7
74426;PMS7003;62859;53.906;27.430;2023-06-14T12:11:59;5.5;5;3.5
74426;PMS7003;62859;53.906;27.430;2023-06-14T12:17:04;4.7;3.7;2.3
74426;PMS7003;62859;53.906;27.430;2023-06-14T12:22:31;4.7;4.3;3
74426;PMS7003;62859;53.906;27.430;2023-06-14T12:26:42;3.7;3.7;3.3
74426;PMS7003;62859;53.906;27.430;2023-06-14T12:31:54;4.5;4;3
74426;PMS7003;62859;53.906;27.430;2023-06-14T12:37:28;7.7;6.7;4.7
74426;PMS7003;62859;53.906;27.430;2023-06-14T12:42:08;4;3.3;2.7
74426;PMS7003;62859;53.906;27.430;2023-06-14T12:46:54;5;5;3
74426;PMS7003;62859;53.906;27.430;2023-06-14T12:52:08;4.3;4.3;4
74426;PMS7003;62859;53.906;27.430;2023-06-14T12:57:14;4;3.3;2.7
74426;PMS7003;62859;53.906;27.430;2023-06-14T13:02:20;5.5;4.8;3.8
74426;PMS7003;62859;53.906;27.430;2023-06-14T13:07:09;4.3;3.7;2.3
74426;PMS7003;62859;53.906;27.430;2023-06-14T13:11:54;5.3;5;4.3
74426;PMS7003;62859;53.906;27.430;2023-06-14T13:17:30;3.7;3.3;2.3
74426;PMS7003;62859;53.906;27.430;2023-06-14T13:22:10;5.3;4.8;3.3
74426;PMS7003;62859;53.906;27.430;2023-06-14T13:26:42;3.7;3.3;2.3
74426;PMS7003;62859;53.906;27.430;2023-06-14T13:32:07;3.7;3.7;3
74426;PMS7003;62859;53.906;27.430;2023-06-14T13:37:28;4.3;3.8;2.5
74426;PMS7003;62859;53.906;27.430;2023-06-14T13:41:52;4;4;3
74426;PMS7003;62859;53.906;27.430;2023-06-14T13:46:42;4;4;2.7
74426;PMS7003;62859;53.906;27.430;2023-06-14T13:52:23;4.7;4.3;3.7
74426;PMS7003;62859;53.906;27.430;2023-06-14T13:57:30;6;5.3;3.8
74426;PMS7003;62859;53.906;27.430;2023-06-14T14:02:22;4.7;4.3;3.3
74426;PMS7003;62859;53.906;27.430;2023-06-14T14:07:08;4.3;3.3;2.7
74426;PMS7003;62859;53.906;27.430;2023-06-14T14:12:08;4.7;3.7;2.7
74426;PMS7003;62859;53.906;27.430;2023-06-14T14:17:28;4.3;4.3;3
74426;PMS7003;62859;53.906;27.430;2023-06-14T14:22:22;5.3;5;3.3
74426;PMS7003;62859;53.906;27.430;2023-06-14T14:26:42;4.3;4;3
74426;PMS7003;62859;53.906;27.430;2023-06-14T14:32:08;3.7;3.7;2.7
74426;PMS7003;62859;53.906;27.430;2023-06-14T14:37:28;3.8;3.5;3
74426;PMS7003;62859;53.906;27.430;2023-06-14T14:42:22;2.7;2.7;2.7
74426;PMS7003;62859;53.906;27.430;2023-06-14T14:47:08;5.3;4.7;3
74426;PMS7003;62859;53.906;27.430;2023-06-14T14:52:08;4.3;4.3;3.3
74426;PMS7003;62859;53.906;27.430;2023-06-14T14:57:28;4.3;3.8;3
74426;PMS7003;62859;53.906;27.430;2023-06-14T15:02:20;5;4.7;3.3
74426;PMS7003;62859;53.906;27.430;2023-06-14T15:06:48;3.7;3.3;2.7
74426;PMS7003;62859;53.906;27.430;2023-06-14T15:12:23;6;4.3;2.7
74426;PMS7003;62859;53.906;27.430;2023-06-14T15:17:26;4.3;4;3
74426;PMS7003;62859;53.906;27.430;2023-06-14T15:22:22;5.3;4.3;2.3
74426;PMS7003;62859;53.906;27.430;2023-06-14T15:26:42;4.7;4;3
74426;PMS7003;62859;53.906;27.430;2023-06-14T15:31:42;7;6.3;4.8
74426;PMS7003;62859;53.906;27.430;2023-06-14T15:37:30;4.7;4;3.3
74426;PMS7003;62859;53.906;27.430;2023-06-14T15:42:22;5;4.3;3.3
74426;PMS7003;62859;53.906;27.430;2023-06-14T15:47:16;4.3;4.3;3.3
74426;PMS7003;62859;53.906;27.430;2023-06-14T15:52:08;5.5;5;3.8
74426;PMS7003;62859;53.906;27.430;2023-06-14T15:57:30;8.3;7.7;5.3
74426;PMS7003;62859;53.906;27.430;2023-06-14T16:02:20;4.3;4.3;3.7
74426;PMS7003;62859;53.906;27.430;2023-06-14T16:06:54;6.3;4.3;3.7
74426;PMS7003;62859;53.906;27.430;2023-06-14T16:11:56;5.8;5.8;4.3
74426;PMS7003;62859;53.906;27.430;2023-06-14T16:17:27;4.7;4.3;3.3
74426;PMS7003;62859;53.906;27.430;2023-06-14T16:22:23;5.3;4.7;3
74426;PMS7003;62859;53.906;27.430;2023-06-14T16:26:55;6.3;6;4.3
74426;PMS7003;62859;53.906;27.430;2023-06-14T16:31:54;5.5;5;4.3
74426;PMS7003;62859;53.906;27.430;2023-06-14T16:37:27;6;5;3.3
74426;PMS7003;62859;53.906;27.430;2023-06-14T16:41:55;6;5;3.7
74426;PMS7003;62859;53.906;27.430;2023-06-14T16:46:56;5.7;4;3.3
74426;PMS7003;62859;53.906;27.430;2023-06-14T16:51:43;7.3;5.3;3.8
74426;PMS7003;62859;53.906;27.430;2023-06-14T16:57:29;7.7;5.7;5
74426;PMS7003;62859;53.906;27.430;2023-06-14T17:02:21;5.7;5.3;3.7
74426;PMS7003;62859;53.906;27.430;2023-06-14T17:06:49;6.3;6.3;5.3
74426;PMS7003;62859;53.906;27.430;2023-06-14T17:12:29;6.8;5.3;4
74426;PMS7003;62859;53.906;27.430;2023-06-14T17:17:01;6.3;4.7;4
74426;PMS7003;62859;53.906;27.430;2023-06-14T17:22:27;5.7;4.7;3.7
74426;PMS7003;62859;53.906;27.430;2023-06-14T17:26:43;7.5;5.5;5
74426;PMS7003;62859;53.906;27.430;2023-06-14T17:32:27;7.7;7.3;5
74426;PMS7003;62859;53.906;27.430;2023-06-14T17:37:13;6.3;6.3;5
74426;PMS7003;62859;53.906;27.430;2023-06-14T17:42:27;6;5.3;4
74426;PMS7003;62859;53.906;27.430;2023-06-14T17:46:55;7;6.5;4.3
74426;PMS7003;62859;53.906;27.430;2023-06-14T17:52:11;6.7;5.3;5
74426;PMS7003;62859;53.906;27.430;2023-06-14T17:57:13;5.7;5.3;4.3
74426;PMS7003;62859;53.906;27.430;2023-06-14T18:02:29;4.3;4.3;3.3
74426;PMS7003;62859;53.906;27.430;2023-06-14T18:07:09;5;5;4
74426;PMS7003;62859;53.906;27.430;2023-06-14T18:12:29;3.3;3.3;2.7
74426;PMS7003;62859;53.906;27.430;2023-06-14T18:17:15;6.3;5;4
74426;PMS7003;62859;53.906;27.430;2023-06-14T18:22:29;4.7;4.7;3
74426;PMS7003;62859;53.906;27.430;2023-06-14T18:26:55;5.3;4.3;3
74426;PMS7003;62859;53.906;27.430;2023-06-14T18:32:31;5.7;4.3;3.3
74426;PMS7003;62859;53.906;27.430;2023-06-14T18:37:19;6;5.3;4.3
74426;PMS7003;62859;53.906;27.430;2023-06-14T18:42:33;5.7;5;4
74426;PMS7003;62859;53.906;27.430;2023-06-14T18:46:55;5.5;5.5;4.8
74426;PMS7003;62859;53.906;27.430;2023-06-14T18:52:33;6;5;4
74426;PMS7003;62859;53.906;27.430;2023-06-14T18:57:19;6.7;6.3;4.7
74426;PMS7003;62859;53.906;27.430;2023-06-14T19:02:27;5.3;5;4.3
74426;PMS7003;62859;53.906;27.430;2023-06-14T19:06:55;5.8;4.8;3.8
74426;PMS7003;62859;53.906;27.430;2023-06-14T19:12:29;6.7;5.7;5
74426;PMS7003;62859;53.906;27.430;2023-06-14T19:17:17;4.7;4.7;3.3
74426;PMS7003;62859;53.906;27.430;2023-06-14T19:22:29;4.8;4.8;3.5
74426;PMS7003;62859;53.906;27.430;2023-06-14T19:26:55;4.7;3.7;3.7
74426;PMS7003;62859;53.906;27.430;2023-06-14T19:32:31;4;3.7;3.3
74426;PMS7003;62859;53.906;27.430;2023-06-14T19:36:59;5;4.7;3.7
74426;PMS7003;62859;53.906;27.430;2023-06-14T19:42:31;6.3;5.5;3.8
74426;PMS7003;62859;53.906;27.430;2023-06-14T19:46:57;4;4;3
74426;PMS7003;62859;53.906;27.430;2023-06-14T19:52:17;5;5;4
74426;PMS7003;62859;53.906;27.430;2023-06-14T19:57:17;4.3;4.3;3.3
74426;PMS7003;62859;53.906;27.430;2023-06-14T20:02:21;6;5.8;4.5
74426;PMS7003;62859;53.906;27.430;2023-06-14T20:06:55;7.3;5;4.3
74426;PMS7003;62859;53.906;27.430;2023-06-14T20:12:31;5;4.7;3.7
74426;PMS7003;62859;53.906;27.430;2023-06-14T20:16:57;8;6.7;5.3
74426;PMS7003;62859;53.906;27.430;2023-06-14T20:22:19;5.3;5.3;4.5
74426;PMS7003;62859;53.906;27.430;2023-06-14T20:26:43;7;6.3;5.3
74426;PMS7003;62859;53.906;27.430;2023-06-14T20:32:31;6.7;6.3;5
74426;PMS7003;62859;53.906;27.430;2023-06-14T20:37:17;6.3;5.3;4.3
74426;PMS7003;62859;53.906;27.430;2023-06-14T20:42:31;6.3;5.3;4.8
74426;PMS7003;62859;53.906;27.430;2023-06-14T20:46:55;6;5.7;3.7
74426;PMS7003;62859;53.906;27.430;2023-06-14T20:52:31;4.7;4.3;3.3
74426;PMS7003;62859;53.906;27.430;2023-06-14T20:57:17;7.3;6;5
74426;PMS7003;62859;53.906;27.430;2023-06-14T21:02:17;8.3;7;5.8
74426;PMS7003;62859;53.906;27.430;2023-06-14T21:06:47;7.7;7.3;5.3
74426;PMS7003;62859;53.906;27.430;2023-06-14T21:12:29;7;5.7;4.7
74426;PMS7003;62859;53.906;27.430;2023-06-14T21:17:03;7.5;7;5.3
74426;PMS7003;62859;53.906;27.430;2023-06-14T21:22:31;6.3;6;4.7
74426;PMS7003;62859;53.906;27.430;2023-06-14T21:26:43;7.3;7;5.3
74426;PMS7003;62859;53.906;27.430;2023-06-14T21:32:31;5.7;5.3;4
74426;PMS7003;62859;53.906;27.430;2023-06-14T21:37:15;6.3;5.8;4.8
74426;PMS7003;62859;53.906;27.430;2023-06-14T21:42:29;8.3;6;4.3
74426;PMS7003;62859;53.906;27.430;2023-06-14T21:46:53;7.3;6.3;4.7
74426;PMS7003;62859;53.906;27.430;2023-06-14T21:52:27;7.3;6.3;4.7
74426;PMS7003;62859;53.906;27.430;2023-06-14T21:57:09;8;6.5;4.8
74426;PMS7003;62859;53.906;27.430;2023-06-14T22:02:27;7.7;6.3;5
74426;PMS7003;62859;53.906;27.430;2023-06-14T22:06:53;8;6.7;4.7
74426;PMS7003;62859;53.906;27.430;2023-06-14T22:12:29;7.7;7.3;5.3
74426;PMS7003;62859;53.906;27.430;2023-06-14T22:17:15;6.3;6;4.8
74426;PMS7003;62859;53.906;27.430;2023-06-14T22:22:29;7.7;6.7;5.3
74426;PMS7003;62859;53.906;27.430;2023-06-14T22:26:43;8;6.3;5.3
74426;PMS7003;62859;53.906;27.430;2023-06-14T22:32:29;6.7;6.7;5.3
74426;PMS7003;62859;53.906;27.430;2023-06-14T22:37:15;7.3;6.3;5.5
74426;PMS7003;62859;53.906;27.430;2023-06-14T22:42:27;8.3;7;5.7
74426;PMS7003;62859;53.906;27.430;2023-06-14T22:46:43;8.3;7.7;6.7
74426;PMS7003;62859;53.906;27.430;2023-06-14T22:52:29;7.7;7;6
74426;PMS7003;62859;53.906;27.430;2023-06-14T22:57:09;9.3;8;5.8
74426;PMS7003;62859;53.906;27.430;2023-06-14T23:02:29;9.3;7.7;5.7
74426;PMS7003;62859;53.906;27.430;2023-06-14T23:06:53;7.3;7;5.7
74426;PMS7003;62859;53.906;27.430;2023-06-14T23:12:27;10.5;8.8;6.8
74426;PMS7003;62859;53.906;27.430;2023-06-14T23:17:13;8;7.3;6
74426;PMS7003;62859;53.906;27.430;2023-06-14T23:22:27;7.3;6.7;5
74426;PMS7003;62859;53.906;27.430;2023-06-14T23:26:43;8.7;7.7;6
74426;PMS7003;62859;53.906;27.430;2023-06-14T23:32:29;8.3;7.5;6.3
74426;PMS7003;62859;53.906;27.430;2023-06-14T23:36:59;9.3;8.7;6.3
74426;PMS7003;62859;53.906;27.430;2023-06-14T23:42:27;7.3;7.3;6
74426;PMS7003;62859;53.906;27.430;2023-06-14T23:46:43;7;6.3;5.3
74426;PMS7003;62859;53.906;27.430;2023-06-14T23:52:29;7.3;7.3;5.8
74426;PMS7003;62859;53.906;27.430;2023-06-14T23:57:01;10.3;8.3;6.7
